createdAt,value
2022-11-05T00:00:37.136Z,100920.81
2022-11-05T00:03:22.766Z,100926.91
2022-11-05T00:06:10.752Z,100930.34
2022-11-05T00:08:56.405Z,100931.25
2022-11-05T00:11:42.929Z,100942.53
2022-11-05T00:14:28.429Z,100937.31
2022-11-05T00:16:55.851Z,100940.78
2022-11-05T00:19:23.150Z,100940.75
2022-11-05T00:22:08.417Z,100947.72
2022-11-05T00:24:53.832Z,100950.34
2022-11-05T00:27:23.332Z,100952.06
2022-11-05T00:29:50.619Z,100953.81
2022-11-05T00:32:17.138Z,100949.44
2022-11-05T00:34:43.865Z,100955.53
2022-11-05T00:37:12.056Z,100952.09
2022-11-05T00:39:38.763Z,100950.31
2022-11-05T00:42:24.582Z,100961.63
2022-11-05T00:45:03.263Z,100952.94
2022-11-05T00:47:50.714Z,100963.34
2022-11-05T00:50:19.583Z,100962.47
2022-11-05T00:52:57.667Z,100971.13
2022-11-05T00:55:35.607Z,100966.78
2022-11-05T00:58:04.856Z,100964.19
2022-11-05T01:00:34.659Z,100967.69
2022-11-05T01:03:13.330Z,100969.41
2022-11-05T01:05:45.157Z,100981.56
2022-11-05T01:08:21.702Z,100976.41
2022-11-05T01:10:58.920Z,100978.13
2022-11-05T01:13:31.681Z,100976.38
2022-11-05T01:16:04.492Z,100982.47
2022-11-05T01:18:31.618Z,100990.25
2022-11-05T01:20:58.384Z,100980.72
2022-11-05T01:23:25.428Z,100975.53
2022-11-05T01:25:52.876Z,100986.81
2022-11-05T01:28:19.994Z,100989.44
2022-11-05T01:30:46.654Z,100991.19
2022-11-05T01:33:13.639Z,100984.25
2022-11-05T01:35:41.008Z,100985.13
2022-11-05T01:38:10.898Z,100977.34
2022-11-05T01:40:43.184Z,100979.94
2022-11-05T01:43:15.941Z,100974.72
2022-11-05T01:45:49.899Z,100983.41
2022-11-05T01:48:21.774Z,100976.47
2022-11-05T01:50:59.617Z,100978.22
2022-11-05T01:53:44.994Z,100979.94
2022-11-05T01:56:15.195Z,100983.44
2022-11-05T01:59:17.311Z,100972.16
2022-11-05T02:01:45.266Z,100973.03
2022-11-05T02:04:17.956Z,100975.63
2022-11-05T02:06:48.150Z,100983.44
2022-11-05T02:09:30.186Z,100988.63
2022-11-05T02:11:58.816Z,100983.44
2022-11-05T02:14:27.270Z,100986.03
2022-11-05T02:17:04.018Z,100986.06
2022-11-05T02:19:55.760Z,100997.31
2022-11-05T02:22:37.622Z,100991.22
2022-11-05T02:25:44.731Z,101000.78
2022-11-05T02:28:52.481Z,100992.09
2022-11-05T02:31:54.834Z,100992.09
2022-11-05T02:34:40.791Z,100992.06
2022-11-05T02:37:33.813Z,100979.94
2022-11-05T02:40:15.377Z,100989.47
2022-11-05T02:43:07.918Z,100992.06
2022-11-05T02:45:52.025Z,100992.94
2022-11-05T02:49:00.161Z,100993.78
2022-11-05T02:51:36.422Z,100989.44
2022-11-05T02:54:16.742Z,100990.31
2022-11-05T02:56:48.318Z,100995.50
2022-11-05T02:59:17.531Z,100992.91
2022-11-05T03:01:47.112Z,100990.31
2022-11-05T03:04:17.893Z,100995.50
2022-11-05T03:07:12.382Z,100992.00
2022-11-05T03:10:25.534Z,101001.56
2022-11-05T03:13:05.313Z,100994.59
2022-11-05T03:15:44.843Z,101001.50
2022-11-05T03:18:24.917Z,101000.63
2022-11-05T03:21:01.672Z,101006.72
2022-11-05T03:23:40.686Z,101009.31
2022-11-05T03:26:26.866Z,101010.16
2022-11-05T03:29:04.751Z,101009.28
2022-11-05T03:31:33.138Z,101008.41
2022-11-05T03:34:03.453Z,101013.59
2022-11-05T03:36:45.672Z,101023.09
2022-11-05T03:39:45.659Z,101017.91
2022-11-05T03:42:15.936Z,101028.28
2022-11-05T03:44:50.220Z,101029.13
2022-11-05T03:47:25.804Z,101024.78
2022-11-05T03:50:08.134Z,101036.06
2022-11-05T03:52:47.218Z,101026.50
2022-11-05T03:55:15.193Z,101033.44
2022-11-05T03:57:47.091Z,101046.47
2022-11-05T04:00:17.070Z,101040.38
2022-11-05T04:02:43.944Z,101046.41
2022-11-05T04:05:13.102Z,101040.38
2022-11-05T04:07:58.598Z,101043.81
2022-11-05T04:10:44.574Z,101037.75
2022-11-05T04:13:27.832Z,101049.00
2022-11-05T04:16:15.786Z,101049.84
2022-11-05T04:18:43.091Z,101043.78
2022-11-05T04:21:32.150Z,101051.56
2022-11-05T04:24:10.961Z,101054.16
2022-11-05T04:26:47.401Z,101046.31
2022-11-05T04:29:32.765Z,101051.50
2022-11-05T04:32:00.052Z,101052.38
2022-11-05T04:34:30.201Z,101058.41
2022-11-05T04:36:57.260Z,101060.13
2022-11-05T04:39:23.879Z,101061.88
2022-11-05T04:41:51.187Z,101065.31
2022-11-05T04:44:20.193Z,101060.94
2022-11-05T04:46:47.110Z,101072.19
2022-11-05T04:49:14.294Z,101077.34
2022-11-05T04:51:41.393Z,101077.31
2022-11-05T04:54:08.669Z,101074.69
2022-11-05T04:56:35.728Z,101083.38
2022-11-05T04:59:02.245Z,101083.38
2022-11-05T05:01:29.045Z,101084.22
2022-11-05T05:03:56.687Z,101085.91
2022-11-05T05:06:23.488Z,101083.31
2022-11-05T05:08:51.715Z,101094.59
2022-11-05T05:11:20.929Z,101084.16
2022-11-05T05:13:51.117Z,101091.94
2022-11-05T05:16:26.810Z,101086.72
2022-11-05T05:18:56.660Z,101090.16
2022-11-05T05:21:38.486Z,101088.44
2022-11-05T05:24:15.610Z,101090.16
2022-11-05T05:26:48.042Z,101097.94
2022-11-05T05:29:16.465Z,101086.69
2022-11-05T05:31:45.828Z,101086.66
2022-11-05T05:34:16.083Z,101090.97
2022-11-05T05:36:43.558Z,101090.97
2022-11-05T05:39:12.972Z,101098.75
2022-11-05T05:41:40.001Z,101093.53
2022-11-05T05:44:06.905Z,101100.41
2022-11-05T05:46:33.985Z,101105.56
2022-11-05T05:49:01.312Z,101101.22
2022-11-05T05:51:28.183Z,101102.97
2022-11-05T05:53:55.459Z,101109.84
2022-11-05T05:56:26.358Z,101102.03
2022-11-05T05:58:55.327Z,101114.09
2022-11-05T06:01:23.065Z,101117.50
2022-11-05T06:03:51.033Z,101119.22
2022-11-05T06:06:20.245Z,101121.81
2022-11-05T06:08:47.697Z,101124.38
2022-11-05T06:11:16.983Z,101127.84
2022-11-05T06:13:44.719Z,101121.72
2022-11-05T06:16:12.206Z,101122.59
2022-11-05T06:18:39.413Z,101121.69
2022-11-05T06:21:12.340Z,101122.56
2022-11-05T06:23:41.321Z,101135.56
2022-11-05T06:26:14.623Z,101135.53
2022-11-05T06:28:42.297Z,101138.13
2022-11-05T06:31:13.487Z,101138.16
2022-11-05T06:33:46.734Z,101130.28
2022-11-05T06:36:16.838Z,101141.56
2022-11-05T06:38:45.907Z,101136.25
2022-11-05T06:41:12.902Z,101141.47
2022-11-05T06:43:41.710Z,101147.50
2022-11-05T06:46:11.796Z,101158.81
2022-11-05T06:48:40.072Z,101156.19
2022-11-05T06:51:08.108Z,101157.94
2022-11-05T06:53:35.927Z,101162.25
2022-11-05T06:56:10.145Z,101155.34
2022-11-05T06:58:41.865Z,101159.66
2022-11-05T07:01:12.210Z,101157.94
2022-11-05T07:03:39.395Z,101147.56
2022-11-05T07:06:07.564Z,101165.78
2022-11-05T07:08:49.895Z,101163.22
2022-11-05T07:11:19.204Z,101168.41
2022-11-05T07:13:50.308Z,101175.38
2022-11-05T07:16:18.975Z,101169.28
2022-11-05T07:18:49.946Z,101171.06
2022-11-05T07:21:16.871Z,101183.22
2022-11-05T07:23:47.634Z,101175.47
2022-11-05T07:26:15.144Z,101176.31
2022-11-05T07:28:44.856Z,101185.88
2022-11-05T07:31:12.291Z,101178.09
2022-11-05T07:33:39.506Z,101184.25
2022-11-05T07:36:06.226Z,101193.84
2022-11-05T07:38:32.929Z,101185.25
2022-11-05T07:41:00.430Z,101193.94
2022-11-05T07:43:27.418Z,101203.50
2022-11-05T07:45:54.171Z,101204.44
2022-11-05T07:48:21.017Z,101205.31
2022-11-05T07:50:54.028Z,101206.22
2022-11-05T07:53:21.429Z,101217.50
2022-11-05T07:55:48.101Z,101204.56
2022-11-05T07:58:14.975Z,101204.59
2022-11-05T08:00:41.929Z,101210.72
2022-11-05T08:03:12.566Z,101207.31
2022-11-05T08:05:44.867Z,101205.63
2022-11-05T08:08:22.062Z,101203.06
2022-11-05T08:10:48.679Z,101200.53
2022-11-05T08:13:17.895Z,101203.19
2022-11-05T08:15:51.722Z,101199.78
2022-11-05T08:18:18.616Z,101193.81
2022-11-05T08:20:46.915Z,101201.66
2022-11-05T08:23:14.498Z,101201.75
2022-11-05T08:25:42.243Z,101205.25
2022-11-05T08:28:12.301Z,101216.56
2022-11-05T08:30:40.671Z,101218.34
2022-11-05T08:33:18.356Z,101215.78
2022-11-05T08:35:48.386Z,101212.34
2022-11-05T08:47:11.142Z,101208.16
2022-11-05T09:18:38.972Z,101230.88
2022-11-05T09:21:07.854Z,101229.13
2022-11-05T09:23:37.362Z,101235.19
2022-11-05T09:47:53.813Z,101235.94
2022-11-05T09:50:34.988Z,101250.69
2022-11-05T09:53:02.393Z,101252.41
2022-11-05T09:55:33.799Z,101255.00
2022-11-05T09:58:04.663Z,101258.47
2022-11-05T10:00:32.442Z,101268.00
2022-11-05T10:03:04.480Z,101264.50
2022-11-05T10:05:33.799Z,101275.78
2022-11-05T10:08:22.816Z,101274.91
2022-11-05T10:10:53.778Z,101273.13
2022-11-05T10:13:26.585Z,101263.53
2022-11-05T10:16:00.813Z,101274.81
2022-11-05T10:18:39.594Z,101273.91
2022-11-05T10:21:07.704Z,101279.06
2022-11-05T10:23:34.505Z,101273.81
2022-11-05T10:26:10.656Z,101271.16
2022-11-05T10:28:37.445Z,101271.16
2022-11-05T10:31:08.563Z,101266.75
2022-11-05T10:33:47.700Z,101275.44
2022-11-05T10:36:23.489Z,101275.38
2022-11-05T10:38:51.674Z,101277.06
2022-11-05T10:41:32.070Z,101276.16
2022-11-05T10:44:16.061Z,101277.88
2022-11-05T10:47:07.016Z,101276.06
2022-11-05T10:49:57.650Z,101274.31
2022-11-05T10:52:33.818Z,101282.09
2022-11-05T10:55:04.543Z,101271.56
2022-11-05T10:57:40.378Z,101267.19
2022-11-05T11:00:19.595Z,101275.00
2022-11-05T11:03:05.656Z,101273.19
2022-11-05T11:05:38.003Z,101274.00
2022-11-05T11:08:10.837Z,101268.72
2022-11-05T11:10:52.663Z,101267.81
2022-11-05T11:13:24.818Z,101274.75
2022-11-05T11:15:51.637Z,101271.19
2022-11-05T11:18:33.374Z,101265.94
2022-11-05T11:21:24.191Z,101274.56
2022-11-05T11:24:23.025Z,101277.13
2022-11-05T11:26:50.347Z,101277.03
2022-11-05T11:29:28.622Z,101279.63
2022-11-05T11:31:58.068Z,101278.66
2022-11-05T11:34:40.651Z,101281.19
2022-11-05T11:37:19.198Z,101279.44
2022-11-05T11:39:50.848Z,101271.53
2022-11-05T11:42:31.641Z,101272.34
2022-11-05T11:45:02.740Z,101275.78
2022-11-05T11:47:30.630Z,101272.25
2022-11-05T11:49:59.766Z,101267.00
2022-11-05T11:52:31.075Z,101260.88
2022-11-05T11:55:28.110Z,101271.31
2022-11-05T11:58:10.789Z,101277.47
2022-11-05T12:00:48.545Z,101273.13
2022-11-05T12:03:30.884Z,101278.31
2022-11-05T12:06:10.078Z,101271.28
2022-11-05T12:08:59.363Z,101273.03
2022-11-05T12:11:53.283Z,101272.16
2022-11-05T12:14:45.197Z,101261.63
2022-11-05T12:17:32.482Z,101274.69
2022-11-05T12:20:20.801Z,101259.78
2022-11-05T12:23:13.027Z,101264.13
2022-11-05T12:26:00.021Z,101265.81
2022-11-05T12:29:17.144Z,101272.78
2022-11-05T12:32:10.891Z,101271.94
2022-11-05T12:35:02.889Z,101266.66
2022-11-05T12:37:33.585Z,101261.41
2022-11-05T12:40:16.418Z,101268.38
2022-11-05T12:43:11.538Z,101260.50
2022-11-05T12:46:09.889Z,101274.44
2022-11-05T12:48:52.223Z,101266.59
2022-11-05T12:51:44.677Z,101270.91
2022-11-05T12:54:33.650Z,101263.94
2022-11-05T12:57:03.828Z,101273.47
2022-11-05T12:59:53.133Z,101267.38
2022-11-05T13:02:31.012Z,101271.69
2022-11-05T13:05:08.223Z,101262.06
2022-11-05T13:07:44.853Z,101261.16
2022-11-05T13:10:21.769Z,101261.13
2022-11-05T13:12:57.608Z,101263.78
2022-11-05T13:15:31.503Z,101251.50
2022-11-05T13:18:00.631Z,101264.63
2022-11-05T13:20:39.920Z,101270.75
2022-11-05T13:23:30.960Z,101262.06
2022-11-05T13:26:20.616Z,101265.56
2022-11-05T13:29:11.646Z,101262.97
2022-11-05T13:32:03.341Z,101267.31
2022-11-05T13:34:37.459Z,101261.25
2022-11-05T13:37:27.359Z,101259.50
2022-11-05T13:39:57.544Z,101260.38
2022-11-05T13:42:54.709Z,101261.28
2022-11-05T13:45:26.945Z,101258.66
2022-11-05T13:48:31.602Z,101263.88
2022-11-05T13:51:04.943Z,101262.13
2022-11-05T13:54:09.636Z,101264.75
2022-11-05T13:57:05.336Z,101264.78
2022-11-05T13:59:49.796Z,101263.94
2022-11-05T14:02:21.876Z,101263.00
2022-11-05T14:04:59.630Z,101269.97
2022-11-05T14:07:35.060Z,101258.56
2022-11-05T14:10:25.417Z,101254.22
2022-11-05T14:12:54.978Z,101266.47
2022-11-05T14:15:26.079Z,101263.91
2022-11-05T14:17:57.760Z,101266.56
2022-11-05T14:20:31.934Z,101263.97
2022-11-05T14:23:24.691Z,101265.75
2022-11-05T14:25:52.911Z,101267.53
2022-11-05T14:28:38.334Z,101265.84
2022-11-05T14:31:47.273Z,101266.75
2022-11-05T14:34:14.610Z,101268.53
2022-11-05T14:37:01.743Z,101267.69
2022-11-05T14:39:30.729Z,101265.03
2022-11-05T14:41:59.794Z,101269.44
2022-11-05T14:44:28.160Z,101275.53
2022-11-05T14:47:03.059Z,101274.69
2022-11-05T14:49:40.189Z,101270.34
2022-11-05T14:52:11.645Z,101271.25
2022-11-05T14:54:52.068Z,101278.25
2022-11-05T14:57:40.759Z,101284.34
2022-11-05T15:00:40.547Z,101282.66
2022-11-05T15:03:45.956Z,101284.47
2022-11-05T15:06:35.647Z,101295.88
2022-11-05T15:09:18.982Z,101291.59
2022-11-05T15:11:54.869Z,101289.91
2022-11-05T15:17:53.342Z,101289.13
2022-11-05T15:20:51.625Z,101295.25
2022-11-05T15:23:22.054Z,101290.94
2022-11-05T15:26:19.223Z,101297.03
2022-11-05T15:28:51.471Z,101292.69
2022-11-05T15:31:26.639Z,101289.22
2022-11-05T15:34:16.377Z,101284.91
2022-11-05T15:36:54.895Z,101287.53
2022-11-05T15:39:46.668Z,101295.47
2022-11-05T15:42:16.440Z,101288.53
2022-11-05T15:44:45.747Z,101297.28
2022-11-05T15:47:20.542Z,101303.41
2022-11-05T15:50:01.991Z,101295.66
2022-11-05T15:52:37.171Z,101302.66
2022-11-05T15:55:19.889Z,101304.47
2022-11-05T15:57:51.173Z,101302.75
2022-11-05T16:00:37.288Z,101300.13
2022-11-05T16:03:12.382Z,101303.66
2022-11-05T16:05:43.927Z,101300.19
2022-11-05T16:08:23.900Z,101302.81
2022-11-05T16:10:54.426Z,101301.97
2022-11-05T16:13:35.314Z,101298.50
2022-11-05T16:16:13.387Z,101301.13
2022-11-05T16:18:40.713Z,101298.56
2022-11-05T16:21:25.146Z,101295.03
2022-11-05T16:23:56.690Z,101295.06
2022-11-05T16:27:01.282Z,101294.22
2022-11-05T16:29:35.543Z,101296.84
2022-11-05T16:32:15.741Z,101302.97
2022-11-05T16:34:48.120Z,101300.38
2022-11-05T16:37:17.214Z,101299.50
2022-11-05T16:39:43.884Z,101299.50
2022-11-05T16:42:23.089Z,101298.66
2022-11-05T16:44:51.623Z,101302.16
2022-11-05T16:47:22.073Z,101297.78
2022-11-05T16:49:49.828Z,101299.56
2022-11-05T16:52:16.941Z,101306.53
2022-11-05T16:54:44.923Z,101297.00
2022-11-05T16:57:32.597Z,101303.94
2022-11-05T17:00:00.979Z,101298.69
2022-11-05T17:02:31.717Z,101311.75
2022-11-05T17:05:00.769Z,101310.06
2022-11-05T17:07:27.847Z,101319.63
2022-11-05T17:09:55.890Z,101317.03
2022-11-05T17:12:22.911Z,101317.91
2022-11-05T17:14:49.724Z,101315.28
2022-11-05T17:17:16.430Z,101331.88
2022-11-05T17:19:43.441Z,101315.28
2022-11-05T17:22:10.396Z,101323.13
2022-11-05T17:24:37.483Z,101327.50
2022-11-05T17:27:03.977Z,101328.38
2022-11-05T17:29:30.910Z,101331.88
2022-11-05T17:31:57.666Z,101336.25
2022-11-05T17:34:24.701Z,101333.66
2022-11-05T17:36:54.212Z,101343.25
2022-11-05T17:39:21.017Z,101342.38
2022-11-05T17:41:48.859Z,101334.53
2022-11-05T17:44:18.022Z,101337.16
2022-11-05T17:46:45.379Z,101331.94
2022-11-05T17:49:11.979Z,101341.53
2022-11-05T17:51:38.963Z,101338.94
2022-11-05T17:54:07.494Z,101348.50
2022-11-05T17:56:41.680Z,101344.16
2022-11-05T17:59:10.077Z,101344.22
2022-11-05T18:01:41.600Z,101339.88
2022-11-05T18:04:09.281Z,101342.47
2022-11-05T18:06:43.348Z,101332.88
2022-11-05T18:09:11.343Z,101344.25
2022-11-05T18:11:38.392Z,101337.31
2022-11-05T18:14:05.400Z,101335.56
2022-11-05T18:16:32.680Z,101348.66
2022-11-05T18:18:59.551Z,101343.44
2022-11-05T18:21:26.415Z,101341.69
2022-11-05T18:23:53.024Z,101338.19
2022-11-05T18:26:19.700Z,101340.81
2022-11-05T18:28:46.581Z,101346.03
2022-11-05T18:31:20.457Z,101342.56
2022-11-05T18:33:48.124Z,101347.81
2022-11-05T18:36:23.117Z,101344.34
2022-11-05T18:38:49.959Z,101326.94
2022-11-05T18:41:23.148Z,101332.16
2022-11-05T18:43:53.372Z,101325.22
2022-11-05T18:46:51.258Z,101339.16
2022-11-05T18:49:07.380Z,101339.16
2022-11-05T18:51:34.030Z,101330.47
2022-11-05T18:54:00.953Z,101324.34
2022-11-05T18:56:28.410Z,101327.84
2022-11-05T18:59:22.042Z,101310.44
2022-11-05T19:01:43.956Z,101319.16
2022-11-05T19:04:11.411Z,101329.59
2022-11-05T19:06:38.508Z,101326.09
2022-11-05T19:09:08.499Z,101320.03
2022-11-05T19:11:35.782Z,101317.41
2022-11-05T19:14:02.867Z,101323.50
2022-11-05T19:16:31.425Z,101325.25
2022-11-05T19:19:00.796Z,101326.13
2022-11-05T19:21:28.104Z,101331.34
2022-11-05T19:24:00.512Z,101319.19
2022-11-05T19:26:29.064Z,101330.47
2022-11-05T19:29:00.814Z,101329.63
2022-11-05T19:31:27.803Z,101329.63
2022-11-05T19:33:54.412Z,101322.66
2022-11-05T19:36:22.857Z,101319.16
2022-11-05T19:38:54.796Z,101323.50
2022-11-05T19:41:22.377Z,101323.50
2022-11-05T19:43:48.962Z,101322.66
2022-11-05T19:46:17.647Z,101324.41
2022-11-05T19:48:44.858Z,101325.25
2022-11-05T19:51:20.882Z,101327.84
2022-11-05T19:53:48.144Z,101329.59
2022-11-05T19:56:25.518Z,101333.06
2022-11-05T19:58:53.889Z,101332.19
2022-11-05T20:01:22.874Z,101330.44
2022-11-05T20:03:50.870Z,101328.69
2022-11-05T20:06:25.738Z,101339.09
2022-11-05T20:09:19.972Z,101333.00
2022-11-05T20:11:41.492Z,101342.63
2022-11-05T20:14:10.418Z,101333.00
2022-11-05T20:16:39.833Z,101334.72
2022-11-05T20:19:09.848Z,101337.31
2022-11-05T20:21:37.618Z,101337.31
2022-11-05T20:24:05.156Z,101332.97
2022-11-05T20:26:32.475Z,101327.72
2022-11-05T20:28:59.597Z,101325.97
2022-11-05T20:31:26.172Z,101326.84
2022-11-05T20:33:53.867Z,101319.00
2022-11-05T20:36:23.873Z,101319.88
2022-11-05T20:38:53.039Z,101320.72
2022-11-05T20:41:21.776Z,101317.25
2022-11-05T20:43:48.453Z,101327.72
2022-11-05T20:46:18.200Z,101330.31
2022-11-05T20:48:45.869Z,101335.56
2022-11-05T20:51:16.297Z,101331.19
2022-11-05T20:53:43.746Z,101332.97
2022-11-05T20:56:18.975Z,101327.75
2022-11-05T20:58:47.483Z,101326.00
2022-11-05T21:01:16.636Z,101325.13
2022-11-05T21:03:44.910Z,101330.34
2022-11-05T21:06:13.214Z,101324.25
2022-11-05T21:08:40.498Z,101325.16
2022-11-05T21:11:08.063Z,101334.75
2022-11-05T21:13:35.816Z,101333.88
2022-11-05T21:16:05.621Z,101333.03
2022-11-05T21:18:35.075Z,101331.28
2022-11-05T21:21:08.722Z,101337.38
2022-11-05T21:23:35.795Z,101333.91
2022-11-05T21:26:05.729Z,101332.19
2022-11-05T21:28:32.980Z,101334.81
2022-11-05T21:31:04.495Z,101340.91
2022-11-05T21:33:32.261Z,101332.25
2022-11-05T21:35:59.616Z,101332.22
2022-11-05T21:38:26.530Z,101334.84
2022-11-05T21:40:53.042Z,101327.91
2022-11-05T21:43:19.699Z,101330.50
2022-11-05T21:45:46.335Z,101329.66
2022-11-05T21:48:15.455Z,101326.19
2022-11-05T21:51:18.067Z,101322.69
2022-11-05T21:54:03.584Z,101330.56
2022-11-05T21:56:49.683Z,101320.13
2022-11-05T21:59:38.935Z,101320.13
2022-11-05T22:02:09.799Z,101322.75
2022-11-05T22:04:45.139Z,101318.38
2022-11-05T22:07:14.634Z,101314.91
2022-11-05T22:09:41.466Z,101319.28
2022-11-05T22:12:08.781Z,101320.13
2022-11-05T22:14:36.544Z,101308.81
2022-11-05T22:17:03.930Z,101313.19
2022-11-05T22:19:31.445Z,101311.44
2022-11-05T22:21:59.121Z,101297.50
2022-11-05T22:24:28.108Z,101295.75
2022-11-05T22:26:54.734Z,101307.97
2022-11-05T22:29:21.339Z,101299.25
2022-11-05T22:31:47.950Z,101294.03
2022-11-05T22:34:14.629Z,101297.53
2022-11-05T22:36:41.697Z,101287.09
2022-11-05T22:39:08.510Z,101288.81
2022-11-05T22:41:35.325Z,101289.69
2022-11-05T22:44:03.323Z,101295.78
2022-11-05T22:46:30.793Z,101291.41
2022-11-05T22:49:00.176Z,101285.34
2022-11-05T22:51:29.972Z,101288.81
2022-11-05T22:53:58.000Z,101287.94
2022-11-05T22:56:27.515Z,101282.72
2022-11-05T22:58:54.711Z,101287.09
2022-11-05T23:01:22.924Z,101280.09
2022-11-05T23:03:52.282Z,101279.25
2022-11-05T23:06:43.314Z,101275.75
2022-11-05T23:09:31.789Z,101274.91
2022-11-05T23:11:58.875Z,101286.22
2022-11-05T23:14:26.533Z,101282.72
2022-11-05T23:17:12.470Z,101283.63
2022-11-05T23:19:58.880Z,101277.50
2022-11-05T23:22:48.109Z,101287.06
2022-11-05T23:25:17.749Z,101278.38
2022-11-05T23:27:46.031Z,101281.84
2022-11-05T23:30:19.565Z,101267.94
2022-11-05T23:32:46.726Z,101268.81
2022-11-05T23:35:13.963Z,101271.41
2022-11-05T23:37:59.643Z,101258.34
2022-11-05T23:40:29.313Z,101267.94
2022-11-05T23:43:15.682Z,101259.25
2022-11-05T23:46:02.911Z,101247.94
2022-11-05T23:48:32.722Z,101242.72
2022-11-05T23:51:08.537Z,101243.56
2022-11-05T23:53:39.423Z,101247.06
2022-11-05T23:56:10.136Z,101243.56
2022-11-05T23:58:39.116Z,101240.09
